Time;durP1;ratioP1;P1;durP2;ratioP2;P2;SDS_P1;SDS_P2;PMS_P1;PMS_P2;Temp;Humidity;BMP_temperature;BMP_pressure;BME280_temperature;BME280_humidity;BME280_pressure;Samples;Min_cycle;Max_cycle;Signal;HPM_P1;HPM_P2
2024/04/11 00:01:24;;;;;;;10.23;5.33;;;;;;;12.10;46.87;98891.94;5440903;26;20295;-72
2024/04/11 00:03:49;;;;;;;12.67;6.23;;;;;;;12.06;47.37;98893.16;5434364;26;20315;-70
2024/04/11 00:06:15;;;;;;;9.87;5.80;;;;;;;12.08;47.30;98885.13;5432577;26;20251;-71
2024/04/11 00:08:40;;;;;;;8.53;4.90;;;;;;;12.08;46.92;98883.34;5446269;26;20250;-71
2024/04/11 00:11:05;;;;;;;7.80;4.47;;;;;;;12.07;47.28;98881.69;5431384;26;20247;-71
2024/04/11 00:13:31;;;;;;;7.90;3.40;;;;;;;12.04;47.12;98879.28;5443359;26;20286;-71
2024/04/11 00:15:57;;;;;;;15.33;9.67;;;;;;;12.03;47.58;98880.25;5446791;26;20289;-72
2024/04/11 00:18:24;;;;;;;25.27;13.40;;;;;;;12.05;47.45;98877.47;5445705;26;20283;-71
2024/04/11 00:20:53;;;;;;;10.43;4.83;;;;;;;12.00;47.51;98864.69;5445751;26;20303;-72
2024/04/11 00:23:18;;;;;;;9.50;4.70;;;;;;;12.01;47.07;98860.31;5441161;26;20476;-70
2024/04/11 00:25:57;;;;;;;17.67;11.40;;;;;;;11.97;47.29;98851.78;5434046;26;20552;-70
2024/04/11 00:28:25;;;;;;;17.43;9.63;;;;;;;11.97;47.49;98850.00;5441640;26;20281;-72
2024/04/11 00:30:53;;;;;;;14.33;7.80;;;;;;;11.89;47.76;98854.16;5443005;26;20537;-70
2024/04/11 00:33:19;;;;;;;9.40;3.87;;;;;;;11.82;47.97;98853.81;5445547;26;20476;-71
2024/04/11 00:35:49;;;;;;;5.20;2.83;;;;;;;11.77;47.65;98856.81;5427604;26;20553;-71
2024/04/11 00:38:16;;;;;;;4.33;2.73;;;;;;;11.76;48.07;98852.50;5441861;26;20251;-69
2024/04/11 00:40:42;;;;;;;15.33;10.17;;;;;;;11.79;48.30;98852.28;5438796;26;20469;-71
2024/04/11 00:43:11;;;;;;;13.37;6.60;;;;;;;11.84;48.04;98844.84;5435018;26;20529;-70
2024/04/11 00:45:42;;;;;;;7.40;4.17;;;;;;;11.86;47.79;98843.91;5440088;26;20302;-71
2024/04/11 00:48:09;;;;;;;13.03;7.93;;;;;;;11.83;47.68;98837.94;5432469;26;20531;-70
2024/04/11 00:50:35;;;;;;;14.83;8.27;;;;;;;11.88;47.69;98842.84;5435694;26;20473;-68
2024/04/11 00:53:01;;;;;;;21.40;12.40;;;;;;;11.90;47.60;98840.09;5458075;26;20521;-72
2024/04/11 00:55:27;;;;;;;9.93;6.40;;;;;;;11.92;47.58;98841.63;5421271;26;20244;-70
2024/04/11 00:57:53;;;;;;;7.30;3.50;;;;;;;11.72;47.46;98843.19;5442807;26;20542;-72
2024/04/11 01:00:19;;;;;;;12.60;5.83;;;;;;;11.74;47.74;98836.03;5433186;26;20519;-69
2024/04/11 01:02:44;;;;;;;7.60;3.30;;;;;;;11.70;47.88;98842.50;5425919;26;20473;-71
2024/04/11 01:05:10;;;;;;;5.83;2.83;;;;;;;11.78;48.05;98845.34;5444400;26;20748;-71
2024/04/11 01:07:36;;;;;;;6.63;4.23;;;;;;;11.77;47.66;98845.47;5441705;26;20277;-70
2024/04/11 01:10:01;;;;;;;9.40;5.13;;;;;;;11.79;47.94;98839.13;5431931;26;20333;-70
2024/04/11 01:12:27;;;;;;;5.37;2.93;;;;;;;11.61;47.83;98830.91;5426254;26;20275;-69
2024/04/11 01:14:52;;;;;;;10.77;6.50;;;;;;;11.63;48.00;98836.03;5460048;26;20247;-70
2024/04/11 01:17:18;;;;;;;7.00;4.40;;;;;;;11.69;48.37;98843.44;5443575;26;20247;-70
2024/04/11 01:19:44;;;;;;;9.33;3.87;;;;;;;11.62;47.87;98843.09;5440718;26;20291;-71
2024/04/11 01:22:10;;;;;;;8.73;3.33;;;;;;;11.56;48.01;98837.47;5428225;26;20239;-71
2024/04/11 01:24:42;;;;;;;8.53;3.57;;;;;;;11.62;47.98;98852.75;5442432;26;20578;-72
2024/04/11 01:27:08;;;;;;;8.03;4.33;;;;;;;11.63;47.98;98850.00;5443985;26;20627;-70
2024/04/11 01:29:37;;;;;;;8.30;3.23;;;;;;;11.53;48.05;98842.00;5439899;26;20461;-69
2024/04/11 01:32:03;;;;;;;7.60;4.43;;;;;;;11.55;48.16;98843.69;5421338;26;20580;-69
2024/04/11 01:34:31;;;;;;;6.77;3.57;;;;;;;11.57;48.34;98855.72;5427503;26;20481;-71
2024/04/11 01:37:00;;;;;;;6.50;3.93;;;;;;;11.55;48.26;98864.69;5437300;26;20282;-72
2024/04/11 01:39:25;;;;;;;6.83;3.43;;;;;;;11.52;48.66;98857.88;5442891;26;20961;-69
2024/04/11 01:41:51;;;;;;;13.87;7.77;;;;;;;11.48;48.74;98857.25;5441063;26;20586;-70
2024/04/11 01:44:17;;;;;;;5.30;4.00;;;;;;;11.43;48.54;98854.16;5431763;26;20267;-72
2024/04/11 01:46:42;;;;;;;5.50;2.83;;;;;;;11.41;48.51;98860.47;5445147;26;20811;-70
2024/04/11 01:49:08;;;;;;;8.57;4.70;;;;;;;11.37;48.62;98857.25;5445444;26;20382;-71
2024/04/11 01:51:34;;;;;;;18.07;4.80;;;;;;;11.38;48.74;98856.28;5445186;26;20239;-69
2024/04/11 01:54:00;;;;;;;9.87;3.40;;;;;;;11.34;48.54;98852.25;5444531;26;20468;-70
2024/04/11 01:56:25;;;;;;;7.67;3.70;;;;;;;11.25;49.21;98850.31;5443333;26;20565;-70
2024/04/11 01:58:52;;;;;;;6.93;3.43;;;;;;;11.24;49.33;98853.88;5427160;26;20357;-69
2024/04/11 02:01:20;;;;;;;11.13;6.40;;;;;;;11.29;48.92;98851.75;5429864;26;20348;-69
2024/04/11 02:03:45;;;;;;;9.03;4.80;;;;;;;11.24;48.97;98848.63;5431904;26;20513;-69
2024/04/11 02:06:11;;;;;;;6.93;3.70;;;;;;;11.20;49.37;98853.28;5443497;26;20795;-71
2024/04/11 02:08:43;;;;;;;7.93;3.27;;;;;;;11.21;49.11;98850.53;5443647;26;20584;-70
2024/04/11 02:11:08;;;;;;;8.90;3.23;;;;;;;11.24;48.76;98844.22;5437763;26;20484;-70
2024/04/11 02:13:34;;;;;;;9.60;3.83;;;;;;;11.19;48.89;98841.97;5438547;26;20572;-69
2024/04/11 02:16:00;;;;;;;6.70;3.10;;;;;;;11.15;49.14;98848.38;5443681;26;20712;-70
2024/04/11 02:18:29;;;;;;;4.57;3.27;;;;;;;11.09;49.08;98845.38;5443341;26;20239;-68
2024/04/11 02:20:54;;;;;;;11.30;5.33;;;;;;;11.12;49.31;98840.72;5435797;26;21065;-71
2024/04/11 02:23:19;;;;;;;6.47;3.50;;;;;;;11.10;49.38;98853.13;5436899;26;20453;-69
2024/04/11 02:25:45;;;;;;;7.43;3.40;;;;;;;11.04;49.29;98859.69;5441532;26;20244;-67
2024/04/11 02:28:10;;;;;;;6.13;3.20;;;;;;;10.99;49.40;98856.56;5444114;26;20294;-71
2024/04/11 02:30:36;;;;;;;3.73;2.90;;;;;;;10.94;49.54;98850.00;5442970;26;20247;-69
2024/04/11 02:33:01;;;;;;;6.93;5.17;;;;;;;10.91;49.68;98858.91;5435467;26;20270;-69
2024/04/11 02:35:27;;;;;;;9.70;6.60;;;;;;;10.93;49.57;98864.06;5434302;26;20240;-70
2024/04/11 02:37:53;;;;;;;5.50;3.70;;;;;;;10.93;49.30;98866.69;5414871;26;20353;-71
2024/04/11 02:40:19;;;;;;;6.70;3.00;;;;;;;10.93;49.34;98861.44;5439059;26;20275;-71
2024/04/11 02:42:45;;;;;;;8.50;3.57;;;;;;;10.80;49.46;98859.72;5447042;26;20496;-71
2024/04/11 02:45:14;;;;;;;4.40;2.80;;;;;;;10.54;50.20;98866.88;5447253;26;20536;-70
2024/04/11 02:47:41;;;;;;;8.93;3.70;;;;;;;10.66;50.00;98865.16;5445312;26;20266;-70
2024/04/11 02:50:07;;;;;;;7.63;4.80;;;;;;;10.67;49.90;98866.81;5442694;26;20843;-71
2024/04/11 02:52:34;;;;;;;10.23;6.10;;;;;;;10.73;50.01;98875.09;5431508;26;20460;-71
2024/04/11 02:54:59;;;;;;;7.00;3.47;;;;;;;10.77;50.20;98875.69;5447959;26;20782;-71
2024/04/11 02:57:26;;;;;;;9.53;3.70;;;;;;;10.77;49.31;98878.31;5447018;26;20456;-70
2024/04/11 02:59:53;;;;;;;5.60;3.23;;;;;;;10.68;49.83;98873.75;5438294;26;20232;-71
2024/04/11 03:02:23;;;;;;;5.73;3.43;;;;;;;10.63;49.45;98870.63;5434317;26;20466;-70
2024/04/11 03:04:51;;;;;;;6.30;3.33;;;;;;;10.62;49.96;98875.03;5445072;26;21034;-71
2024/04/11 03:07:18;;;;;;;8.37;3.90;;;;;;;10.56;49.87;98885.94;5431293;26;20476;-69
2024/04/11 03:09:43;;;;;;;6.77;2.97;;;;;;;10.58;50.04;98869.19;5446027;26;20453;-70
2024/04/11 03:12:09;;;;;;;12.00;3.87;;;;;;;10.53;50.16;98881.78;5431574;26;20990;-70
2024/04/11 03:14:36;;;;;;;7.73;4.00;;;;;;;10.57;49.89;98883.25;5423161;26;20287;-70
2024/04/11 03:17:04;;;;;;;6.13;3.00;;;;;;;10.59;49.90;98885.72;5437948;26;20232;-68
2024/04/11 03:19:30;;;;;;;3.77;3.10;;;;;;;10.60;50.09;98893.47;5438723;26;21041;-70
2024/04/11 03:21:56;;;;;;;4.63;3.00;;;;;;;10.57;50.19;98887.63;5440135;26;20460;-70
2024/04/11 03:24:21;;;;;;;4.13;2.90;;;;;;;10.49;50.27;98875.06;5447488;26;20460;-69
2024/04/11 03:26:47;;;;;;;7.53;4.30;;;;;;;10.50;50.43;98882.00;5433098;26;20271;-71
2024/04/11 03:29:14;;;;;;;14.93;4.20;;;;;;;10.52;50.20;98882.72;5447483;26;20239;-70
2024/04/11 03:31:42;;;;;;;7.13;3.27;;;;;;;10.51;50.39;98881.03;5434611;26;20320;-72
2024/04/11 03:34:08;;;;;;;6.20;3.10;;;;;;;10.50;50.19;98879.38;5432833;26;20452;-71
2024/04/11 03:36:33;;;;;;;7.83;3.90;;;;;;;10.53;50.06;98879.16;5445712;26;20513;-72
2024/04/11 03:38:59;;;;;;;6.83;4.17;;;;;;;10.48;50.03;98878.63;5447711;26;20495;-70
2024/04/11 03:41:24;;;;;;;6.20;3.10;;;;;;;10.48;49.86;98888.31;5446142;26;20650;-70
2024/04/11 03:43:55;;;;;;;4.43;3.07;;;;;;;10.46;49.78;98891.00;5431687;26;20306;-71
2024/04/11 03:46:23;;;;;;;5.27;3.30;;;;;;;10.37;49.89;98889.88;5444806;26;20243;-71
2024/04/11 03:48:55;;;;;;;10.50;3.10;;;;;;;10.36;49.79;98880.34;5431298;26;20462;-71
2024/04/11 03:51:29;;;;;;;6.40;3.07;;;;;;;10.34;50.39;98882.22;5441710;26;21324;-71
2024/04/11 03:53:56;;;;;;;7.07;4.70;;;;;;;10.37;50.27;98891.66;5425566;26;20521;-69
2024/04/11 03:56:23;;;;;;;5.90;3.60;;;;;;;10.39;50.43;98889.78;5441719;26;23169;-69
2024/04/11 03:58:51;;;;;;;8.67;5.30;;;;;;;10.40;50.40;98896.72;5420106;26;20507;-70
2024/04/11 04:01:18;;;;;;;9.37;4.00;;;;;;;10.36;50.22;98901.31;5439619;26;20892;-69
2024/04/11 04:03:47;;;;;;;6.73;3.13;;;;;;;10.29;50.10;98892.19;5432332;26;20473;-72
2024/04/11 04:06:16;;;;;;;5.70;3.70;;;;;;;10.35;50.72;98885.69;5427449;26;20569;-71
2024/04/11 04:08:47;;;;;;;12.97;3.07;;;;;;;10.37;50.04;98891.66;5434346;26;20514;-70
2024/04/11 04:11:13;;;;;;;7.53;3.23;;;;;;;10.32;50.18;98896.41;5445559;26;20473;-67
2024/04/11 04:13:40;;;;;;;4.23;3.13;;;;;;;10.30;50.19;98901.72;5431635;26;20473;-69
2024/04/11 04:16:10;;;;;;;5.67;3.57;;;;;;;10.35;49.92;98904.03;5441438;26;20457;-70
2024/04/11 04:18:36;;;;;;;5.87;3.27;;;;;;;10.30;49.75;98902.59;5426673;26;20453;-71
2024/04/11 04:21:02;;;;;;;4.33;3.10;;;;;;;10.20;50.21;98904.19;5427881;26;20448;-70
2024/04/11 04:23:28;;;;;;;5.73;3.57;;;;;;;10.23;50.20;98900.50;5437474;26;20468;-71
2024/04/11 04:26:14;;;;;;;4.70;2.50;;;;;;;10.12;50.67;98899.47;5429011;26;20240;-69
2024/04/11 04:28:41;;;;;;;3.00;2.67;;;;;;;10.11;50.79;98904.81;5424001;26;20279;-71
2024/04/11 04:31:14;;;;;;;5.87;3.50;;;;;;;10.07;50.88;98903.38;5445544;26;20461;-69
2024/04/11 04:33:41;;;;;;;8.17;3.27;;;;;;;10.01;50.73;98903.78;5466684;26;20461;-70
2024/04/11 04:36:07;;;;;;;6.27;3.50;;;;;;;9.97;50.84;98911.84;5435029;26;20468;-69
2024/04/11 04:38:32;;;;;;;6.47;3.43;;;;;;;10.01;50.88;98919.50;5440007;26;20453;-69
2024/04/11 04:40:58;;;;;;;8.57;3.63;;;;;;;10.02;50.69;98908.91;5428463;26;20450;-71
2024/04/11 04:43:23;;;;;;;9.63;3.43;;;;;;;9.95;50.72;98913.78;5432658;26;20336;-71
2024/04/11 04:45:49;;;;;;;10.60;3.50;;;;;;;9.93;50.98;98913.03;5438663;26;20249;-70
2024/04/11 04:48:15;;;;;;;9.40;3.60;;;;;;;9.96;51.13;98922.44;5427733;26;20321;-70
2024/04/11 04:50:41;;;;;;;6.20;3.47;;;;;;;9.97;51.07;98921.50;5429553;26;20272;-69
2024/04/11 04:53:07;;;;;;;9.47;4.90;;;;;;;10.04;51.07;98927.16;5432522;26;20469;-69
2024/04/11 04:55:33;;;;;;;4.60;3.37;;;;;;;10.06;50.93;98935.75;5431883;26;20240;-68
2024/04/11 04:57:58;;;;;;;10.37;3.60;;;;;;;9.90;50.71;98947.28;5439851;26;20235;-71
2024/04/11 05:00:24;;;;;;;9.00;3.57;;;;;;;9.86;51.11;98951.06;5441346;26;20441;-70
2024/04/11 05:02:53;;;;;;;7.73;3.50;;;;;;;9.92;51.32;98952.41;5439947;26;20243;-71
2024/04/11 05:05:20;;;;;;;10.73;4.27;;;;;;;9.92;50.91;98948.03;5425179;26;20523;-69
2024/04/11 05:07:45;;;;;;;8.03;4.20;;;;;;;9.98;51.24;98947.59;5428065;26;20469;-69
2024/04/11 05:10:12;;;;;;;6.50;3.60;;;;;;;9.98;51.23;98955.44;5433971;26;20441;-70
2024/04/11 05:12:48;;;;;;;14.03;4.60;;;;;;;9.93;51.57;98962.78;5437452;26;20739;-71
2024/04/11 05:15:14;;;;;;;9.83;4.00;;;;;;;10.02;51.14;98965.72;5424287;26;20529;-71
2024/04/11 05:17:43;;;;;;;6.57;3.60;;;;;;;10.07;51.07;98959.22;5439311;26;20513;-69
2024/04/11 05:20:21;;;;;;;9.53;3.67;;;;;;;9.96;51.44;98962.56;5434162;26;20568;-70
2024/04/11 05:22:51;;;;;;;5.77;3.50;;;;;;;9.82;52.11;98966.13;5428111;26;20462;-71
2024/04/11 05:25:21;;;;;;;12.73;3.80;;;;;;;9.94;52.01;98972.34;5432886;26;20587;-69
2024/04/11 05:27:46;;;;;;;13.07;3.80;;;;;;;10.05;51.88;98973.38;5433627;26;20465;-70
2024/04/11 05:30:12;;;;;;;11.67;3.87;;;;;;;10.10;51.62;98971.25;5436005;26;21127;-70
2024/04/11 05:32:39;;;;;;;11.27;3.83;;;;;;;10.06;51.84;98978.50;5423673;26;20256;-71
2024/04/11 05:35:09;;;;;;;7.77;4.00;;;;;;;10.17;51.90;98980.38;5420854;26;20511;-72
2024/04/11 05:37:39;;;;;;;7.20;4.70;;;;;;;10.09;52.22;98978.28;5422907;26;20458;-71
2024/04/11 05:40:06;;;;;;;13.80;5.47;;;;;;;10.15;52.19;98972.63;5440687;26;20473;-72
2024/04/11 05:42:35;;;;;;;8.40;4.67;;;;;;;10.13;52.20;98976.28;5417588;26;20540;-70
2024/04/11 05:45:02;;;;;;;10.37;5.57;;;;;;;10.23;53.08;98974.69;5437844;26;20807;-70
2024/04/11 05:47:29;;;;;;;14.80;5.90;;;;;;;10.46;52.44;98974.91;5422442;26;20450;-72
2024/04/11 05:49:54;;;;;;;11.23;7.17;;;;;;;10.63;52.43;98970.25;5426327;26;20476;-71
2024/04/11 05:52:20;;;;;;;9.83;6.50;;;;;;;10.81;52.37;98976.81;5430611;26;20572;-71
2024/04/11 05:54:50;;;;;;;15.73;5.53;;;;;;;10.91;51.66;98975.19;5432013;26;20282;-70
2024/04/11 05:57:17;;;;;;;8.77;4.50;;;;;;;10.89;51.95;98971.84;5424630;26;20780;-69
2024/04/11 05:59:44;;;;;;;8.67;4.90;;;;;;;10.94;51.36;98978.56;5455329;26;20471;-72
2024/04/11 06:02:13;;;;;;;8.00;4.30;;;;;;;11.10;51.88;98979.09;5434556;26;20464;-70
2024/04/11 06:04:41;;;;;;;8.03;4.00;;;;;;;11.32;51.03;98973.09;5423122;26;20449;-71
2024/04/11 06:07:07;;;;;;;10.67;3.97;;;;;;;11.51;49.94;98974.38;5426135;26;20534;-71
2024/04/11 06:09:34;;;;;;;10.23;4.10;;;;;;;11.56;49.10;98980.09;5428919;26;20460;-70
2024/04/11 06:12:00;;;;;;;9.80;4.80;;;;;;;11.71;49.70;98980.75;5436515;26;20244;-69
2024/04/11 06:14:26;;;;;;;11.13;4.93;;;;;;;11.94;50.41;98973.72;5420848;26;20477;-71
2024/04/11 06:16:51;;;;;;;14.10;5.10;;;;;;;12.16;50.13;98984.41;5438550;26;21010;-71
2024/04/11 06:19:17;;;;;;;7.50;4.30;;;;;;;12.35;50.13;98978.56;5438689;26;20272;-72
2024/04/11 06:21:47;;;;;;;8.57;6.63;;;;;;;12.60;51.71;98985.34;5442659;26;20286;-72
2024/04/11 06:24:12;;;;;;;10.50;4.53;;;;;;;12.84;49.37;98984.34;5446581;26;20277;-70
2024/04/11 06:26:38;;;;;;;8.10;4.30;;;;;;;12.97;47.20;98982.41;5388315;26;20464;-72
2024/04/11 06:29:07;;;;;;;11.23;5.07;;;;;;;13.01;47.18;98989.06;5438836;26;20240;-71
2024/04/11 06:31:33;;;;;;;14.10;4.83;;;;;;;13.15;47.15;98984.50;5449154;26;20724;-72
2024/04/11 06:33:59;;;;;;;9.50;4.63;;;;;;;13.35;47.05;98986.34;5435343;26;20568;-72
2024/04/11 06:36:24;;;;;;;12.40;4.90;;;;;;;13.52;46.02;98989.38;5427311;26;20458;-72
2024/04/11 06:38:51;;;;;;;15.70;4.63;;;;;;;13.69;45.47;98987.16;5453641;26;20242;-73
2024/04/11 06:41:22;;;;;;;13.27;5.33;;;;;;;13.86;45.62;98989.19;5433961;26;20278;-70
2024/04/11 06:43:50;;;;;;;14.47;5.30;;;;;;;14.04;45.56;98986.81;5428020;26;20500;-70
2024/04/11 06:46:15;;;;;;;18.53;5.30;;;;;;;14.25;45.27;98986.75;5428234;26;20518;-70
2024/04/11 06:48:41;;;;;;;18.47;4.73;;;;;;;14.46;44.87;98985.03;5432847;26;20461;-73
2024/04/11 06:51:09;;;;;;;6.97;4.00;;;;;;;14.58;44.18;98990.06;5468798;26;20258;-71
2024/04/11 06:53:36;;;;;;;8.97;3.93;;;;;;;14.80;43.51;98988.22;5427519;26;20505;-71
2024/04/11 06:56:07;;;;;;;13.13;4.50;;;;;;;14.96;43.08;98992.97;5440580;26;20456;-70
2024/04/11 06:58:36;;;;;;;11.40;5.37;;;;;;;15.15;43.24;98986.84;5438087;26;20457;-70
2024/04/11 07:01:03;;;;;;;15.03;5.80;;;;;;;15.38;43.42;98985.75;5447621;26;20869;-70
2024/04/11 07:03:29;;;;;;;8.83;4.30;;;;;;;15.50;41.83;98992.56;5438758;26;20533;-71
2024/04/11 07:09:03;;;;;;;8.60;3.80;;;;;;;15.67;39.76;98996.28;5439936;26;20512;-72
2024/04/11 07:11:32;;;;;;;16.53;4.87;;;;;;;15.71;40.29;98999.50;5436625;26;20506;-73
2024/04/11 07:13:59;;;;;;;11.63;3.90;;;;;;;15.92;40.16;99004.63;5442759;26;20464;-73
2024/04/11 07:16:32;;;;;;;19.90;4.80;;;;;;;16.01;40.00;99006.41;5441168;26;20465;-72
2024/04/11 07:19:02;;;;;;;10.43;4.03;;;;;;;16.12;39.38;99006.28;5421118;26;20504;-71
2024/04/11 07:21:34;;;;;;;8.57;4.17;;;;;;;16.31;40.11;98999.22;5447173;26;20547;-72
2024/04/11 07:24:03;;;;;;;6.53;3.90;;;;;;;16.49;39.39;99001.13;5421267;26;21077;-70
2024/04/11 07:26:30;;;;;;;15.23;6.27;;;;;;;16.57;38.91;99003.84;5442615;26;20477;-71
2024/04/11 07:29:03;;;;;;;17.50;6.50;;;;;;;16.74;38.92;99005.72;5438197;26;20462;-72
2024/04/11 07:31:30;;;;;;;18.30;10.73;;;;;;;16.91;38.37;99007.72;5427826;26;20503;-72
2024/04/11 07:33:55;;;;;;;30.20;17.00;;;;;;;17.13;38.76;99011.78;5437109;26;20458;-72
2024/04/11 07:36:22;;;;;;;28.30;17.27;;;;;;;17.31;37.72;99023.22;5436954;26;20843;-72
2024/04/11 07:38:52;;;;;;;13.27;5.77;;;;;;;17.40;37.16;99017.97;5437778;26;20277;-72
2024/04/11 07:41:18;;;;;;;10.63;6.60;;;;;;;17.45;37.32;99019.19;5435758;26;20466;-70
2024/04/11 07:43:57;;;;;;;15.30;7.60;;;;;;;17.59;37.45;99020.47;5443886;26;20465;-71
2024/04/11 07:46:28;;;;;;;21.10;8.40;;;;;;;17.81;36.93;99010.34;5437210;26;20542;-72
2024/04/11 07:48:54;;;;;;;9.67;5.67;;;;;;;17.87;36.71;99008.91;5439790;26;20473;-72
2024/04/11 07:51:20;;;;;;;30.17;19.77;;;;;;;18.11;36.65;98998.47;5436207;26;20564;-72
2024/04/11 07:53:47;;;;;;;15.97;8.17;;;;;;;18.33;36.52;98998.09;5420158;26;20275;-70
2024/04/11 07:56:19;;;;;;;21.03;15.77;;;;;;;18.61;36.33;99003.19;5442946;26;20472;-71
2024/04/11 07:58:58;;;;;;;15.30;8.00;;;;;;;18.87;35.81;98988.00;5438267;26;20509;-71
2024/04/11 08:01:36;;;;;;;10.07;5.47;;;;;;;19.03;35.01;98991.72;5448174;26;20449;-72
2024/04/11 08:04:05;;;;;;;13.50;4.28;;;;;;;19.14;34.52;98983.44;5457997;26;20461;-70
2024/04/11 08:06:32;;;;;;;8.30;3.73;;;;;;;19.34;34.31;98991.09;5447498;26;20609;-71
2024/04/11 08:08:58;;;;;;;12.97;5.27;;;;;;;19.52;33.43;98992.78;5434205;26;20474;-70
2024/04/11 08:11:24;;;;;;;8.10;4.80;;;;;;;19.65;33.56;98998.41;5432988;26;20501;-71
2024/04/11 08:13:52;;;;;;;7.27;3.70;;;;;;;19.85;33.03;99006.03;5447965;26;20473;-71
2024/04/11 08:16:18;;;;;;;9.17;3.80;;;;;;;20.05;32.93;99004.69;5441882;26;20567;-70
2024/04/11 08:18:45;;;;;;;10.87;3.53;;;;;;;20.14;32.64;99005.50;5447362;26;20612;-72
2024/04/11 08:21:11;;;;;;;6.03;2.97;;;;;;;20.06;31.81;99001.03;5432590;26;20515;-70
2024/04/11 08:23:40;;;;;;;5.27;2.67;;;;;;;20.27;31.34;98999.66;5444478;26;20525;-71
2024/04/11 08:26:07;;;;;;;6.10;2.90;;;;;;;20.38;32.14;98998.44;5446627;26;20476;-71
2024/04/11 08:28:37;;;;;;;5.23;3.20;;;;;;;20.08;31.57;99004.38;5440662;26;21005;-69
2024/04/11 08:31:06;;;;;;;9.30;3.97;;;;;;;19.94;32.01;99011.22;5447668;26;21057;-72
2024/04/11 08:33:32;;;;;;;8.37;3.60;;;;;;;20.06;32.52;99010.88;5447863;26;20491;-70
2024/04/11 08:35:59;;;;;;;7.63;4.00;;;;;;;20.30;31.95;99015.28;5448121;26;20452;-71
2024/04/11 08:38:24;;;;;;;12.93;4.17;;;;;;;20.42;31.50;99008.56;5432140;26;20539;-72
2024/04/11 08:40:50;;;;;;;10.37;4.20;;;;;;;20.61;32.39;99019.84;5431348;26;20461;-71
2024/04/11 08:43:20;;;;;;;7.90;3.50;;;;;;;20.83;31.19;99010.28;5433063;26;20244;-71
2024/04/11 08:45:46;;;;;;;13.40;3.53;;;;;;;20.85;30.45;99015.44;5446930;26;20239;-71
2024/04/11 08:48:12;;;;;;;6.13;3.33;;;;;;;20.82;31.12;99010.44;5436086;26;20538;-70
2024/04/11 08:50:40;;;;;;;11.20;3.77;;;;;;;21.00;31.20;99015.50;5439484;26;20457;-72
2024/04/11 08:53:09;;;;;;;7.37;3.83;;;;;;;21.25;30.41;99012.69;5447099;26;20468;-73
2024/04/11 08:55:35;;;;;;;8.53;3.80;;;;;;;21.04;30.54;99011.50;5439949;26;20471;-72
2024/04/11 08:58:01;;;;;;;11.00;3.70;;;;;;;20.98;30.35;99015.69;5446859;26;20506;-71
2024/04/11 09:00:28;;;;;;;13.20;3.60;;;;;;;21.23;30.72;99014.72;5442102;26;20484;-72
2024/04/11 09:02:55;;;;;;;6.83;3.43;;;;;;;21.47;30.18;99016.34;5447848;26;21036;-72
2024/04/11 09:05:22;;;;;;;5.87;3.30;;;;;;;21.48;29.58;99018.03;5447716;26;20996;-73
2024/04/11 09:07:47;;;;;;;12.83;3.30;;;;;;;21.74;29.89;99038.19;5448256;26;20591;-69
2024/04/11 09:10:13;;;;;;;11.70;3.60;;;;;;;21.86;29.88;99023.41;5431668;26;20481;-71
2024/04/11 09:12:42;;;;;;;10.17;3.17;;;;;;;22.04;28.80;99033.72;5437890;26;20593;-73
2024/04/11 09:15:10;;;;;;;8.27;3.90;;;;;;;22.12;28.14;99019.47;5415596;26;20529;-72
2024/04/11 09:17:40;;;;;;;9.50;3.10;;;;;;;22.15;29.15;99013.78;5442015;26;20587;-71
2024/04/11 09:20:12;;;;;;;10.10;3.33;;;;;;;22.37;28.02;99022.69;5446770;26;20460;-73
2024/04/11 09:22:38;;;;;;;12.33;3.20;;;;;;;22.61;28.20;99020.78;5432192;26;21097;-71
2024/04/11 09:25:07;;;;;;;7.17;2.83;;;;;;;22.50;28.15;99030.09;5446709;26;21120;-72
2024/04/11 09:27:42;;;;;;;8.03;3.27;;;;;;;22.62;27.98;99029.63;5426477;26;20854;-71
2024/04/11 09:30:08;;;;;;;7.87;3.77;;;;;;;22.84;27.85;99020.66;5440464;26;20460;-70
2024/04/11 09:32:39;;;;;;;7.47;2.77;;;;;;;22.83;27.14;99027.00;5446724;26;20564;-72
2024/04/11 09:35:05;;;;;;;7.87;2.63;;;;;;;22.94;27.31;99038.22;5445442;26;20247;-73
2024/04/11 09:37:32;;;;;;;5.50;2.20;;;;;;;22.95;26.88;99031.88;5436234;26;20839;-70
2024/04/11 09:40:11;;;;;;;4.47;2.70;;;;;;;23.08;26.65;99029.34;5437982;26;20461;-72
2024/04/11 09:42:39;;;;;;;4.40;2.50;;;;;;;23.12;25.77;99030.63;5447310;26;20468;-71
2024/04/11 09:45:10;;;;;;;4.67;1.53;;;;;;;23.28;25.13;99028.78;5444998;26;20473;-73
2024/04/11 09:47:38;;;;;;;6.73;3.63;;;;;;;23.51;25.08;99033.91;5424830;26;21307;-72
2024/04/11 09:50:05;;;;;;;3.67;1.60;;;;;;;23.65;25.02;99034.88;5467743;26;20913;-71
2024/04/11 09:52:34;;;;;;;7.60;2.00;;;;;;;23.75;25.06;99037.22;5446107;26;20489;-69
2024/04/11 09:55:04;;;;;;;4.60;2.00;;;;;;;23.82;25.23;99030.06;5433709;26;20484;-70
2024/04/11 09:57:33;;;;;;;3.63;1.80;;;;;;;23.85;23.98;99035.03;5418487;26;20506;-72
2024/04/11 10:00:08;;;;;;;9.07;1.80;;;;;;;23.95;23.94;99037.34;5439959;26;20915;-72
2024/04/11 10:02:35;;;;;;;2.87;1.47;;;;;;;23.50;24.03;99042.13;5444349;26;20525;-71
2024/04/11 10:05:05;;;;;;;5.10;1.80;;;;;;;23.70;24.32;99036.97;5447830;26;20461;-70
2024/04/11 10:07:43;;;;;;;4.73;1.63;;;;;;;23.79;23.32;99041.16;5445075;26;20449;-71
2024/04/11 10:10:19;;;;;;;5.83;2.07;;;;;;;24.16;23.69;99027.66;5428961;26;20468;-72
2024/04/11 10:12:48;;;;;;;4.27;1.60;;;;;;;24.32;23.31;99030.00;5425223;26;20477;-73
2024/04/11 10:15:18;;;;;;;5.60;1.90;;;;;;;24.29;23.67;99034.94;5433753;26;20461;-71
2024/04/11 10:18:02;;;;;;;2.93;1.50;;;;;;;24.04;24.25;99036.25;5434209;26;21077;-72
2024/04/11 10:20:42;;;;;;;3.53;2.00;;;;;;;24.02;23.76;99032.94;5426220;26;20557;-72
2024/04/11 10:23:15;;;;;;;4.47;2.07;;;;;;;24.02;23.95;99040.13;5442306;26;20509;-72
2024/04/11 10:25:41;;;;;;;4.37;2.00;;;;;;;24.22;23.74;99029.53;5433895;26;20465;-72
2024/04/11 10:28:15;;;;;;;3.97;2.23;;;;;;;24.63;24.39;99025.25;5447741;26;20461;-73
2024/04/11 10:30:50;;;;;;;4.40;1.87;;;;;;;24.05;23.43;99029.88;5447535;26;20281;-72
2024/04/11 10:33:29;;;;;;;6.07;2.53;;;;;;;24.37;24.59;99032.94;5448476;26;20472;-72
2024/04/11 10:35:56;;;;;;;4.90;1.90;;;;;;;24.75;24.28;99031.72;5421493;26;20472;-73
2024/04/11 10:38:27;;;;;;;7.13;1.70;;;;;;;24.87;23.40;99023.91;5460411;26;20548;-73
2024/04/11 10:40:53;;;;;;;8.50;1.90;;;;;;;24.94;23.06;99026.59;5431303;26;20518;-72
2024/04/11 10:43:24;;;;;;;7.27;2.43;;;;;;;24.99;23.26;99035.69;5432205;26;20816;-70
2024/04/11 10:45:50;;;;;;;4.67;1.77;;;;;;;25.17;22.94;99031.63;5440164;26;20480;-72
2024/04/11 10:48:17;;;;;;;5.50;2.10;;;;;;;25.22;23.55;99029.16;5458245;26;20887;-71
2024/04/11 10:50:44;;;;;;;2.10;1.63;;;;;;;25.25;22.06;99034.13;5441482;26;20458;-72
2024/04/11 10:53:12;;;;;;;11.77;2.00;;;;;;;25.12;21.86;99039.44;5436844;26;20513;-72
2024/04/11 10:55:38;;;;;;;7.17;4.53;;;;;;;25.40;22.39;99039.28;5443340;26;20465;-73
2024/04/11 10:58:13;;;;;;;12.10;9.30;;;;;;;25.51;22.46;99040.59;5446810;26;20456;-70
2024/04/11 11:03:46;;;;;;;7.10;4.10;;;;;;;25.84;22.55;99038.94;5445448;26;20456;-73
2024/04/11 11:06:24;;;;;;;8.83;2.37;;;;;;;25.59;21.29;99035.00;5442667;26;20564;-71
2024/04/11 11:08:59;;;;;;;4.27;2.30;;;;;;;25.68;21.95;99042.88;5449634;26;20456;-71
2024/04/11 11:11:26;;;;;;;4.10;2.00;;;;;;;25.55;21.69;99033.78;5434871;26;20905;-72
2024/04/11 11:13:55;;;;;;;5.80;2.47;;;;;;;25.65;23.34;99032.53;5451968;26;20561;-73
2024/04/11 11:16:21;;;;;;;6.03;3.43;;;;;;;25.80;22.04;99030.50;5432954;26;20458;-71
2024/04/11 11:18:47;;;;;;;4.90;3.37;;;;;;;26.02;21.47;99017.63;5448151;26;20508;-72
2024/04/11 11:21:22;;;;;;;2.77;1.77;;;;;;;25.97;21.18;99027.34;5440092;26;20927;-73
2024/04/11 11:23:54;;;;;;;2.90;1.43;;;;;;;25.82;20.98;99024.91;5435072;26;20453;-72
2024/04/11 11:26:22;;;;;;;7.43;1.93;;;;;;;25.43;21.31;99019.31;5418061;26;21199;-72
2024/04/11 11:28:51;;;;;;;7.63;3.10;;;;;;;25.73;21.76;99016.22;5433095;26;20453;-72
2024/04/11 11:31:20;;;;;;;6.93;3.37;;;;;;;26.07;21.01;99009.78;5434552;26;20458;-70
2024/04/11 11:33:49;;;;;;;16.27;3.20;;;;;;;26.20;20.98;99014.34;5441848;26;20847;-70
2024/04/11 11:36:18;;;;;;;6.93;2.60;;;;;;;26.34;20.34;99012.44;5434901;26;20516;-72
2024/04/11 11:38:44;;;;;;;8.00;3.40;;;;;;;26.36;20.67;99012.22;5432633;26;20457;-72
2024/04/11 11:41:15;;;;;;;5.90;2.20;;;;;;;26.43;20.09;98999.59;5448005;26;20951;-74